Cleveland, Ohio
Traffic Map
Current Weather Conditions
Cleveland, Ohio
Overcast Light Rain
Overcast

Feels Like: 5°
Wind Chill: Ceiling: 3700
Heat Index: Visibility: 9mi
Dew Point: Wind: 15mph
Humidity: 71% Direction: 180° (S)
Pressure: 30.03in Gusts: 0mph
Raw Report DataKBKL 222253Z 18013KT 9SM -RA OVC037 08/03 A3003 RMK AO2 RAB31 SLP173 P0001 T00830033
Traffic Incident Summary
Active as of:
Severity:
Category:
InformationThere was an issue retrieving the traffic information for this location. Please try a different location or try again shortly.
Advertisements
Track Severe Weather on mobile